sensor_id;sensor_type;location;lat;lon;timestamp;temperature;humidity
71142;DHT22;58808;59.366;17.970;2022-08-11T00:01:20;19.40;99.90
71142;DHT22;58808;59.366;17.970;2022-08-11T00:03:55;19.40;99.90
71142;DHT22;58808;59.366;17.970;2022-08-11T00:06:30;19.30;99.90
71142;DHT22;58808;59.366;17.970;2022-08-11T00:08:57;19.30;99.90
71142;DHT22;58808;59.366;17.970;2022-08-11T00:11:45;19.20;99.90
71142;DHT22;58808;59.366;17.970;2022-08-11T00:14:23;19.20;99.90
71142;DHT22;58808;59.366;17.970;2022-08-11T00:17:01;19.20;99.90
71142;DHT22;58808;59.366;17.970;2022-08-11T00:19:31;19.20;99.90
71142;DHT22;58808;59.366;17.970;2022-08-11T00:21:57;19.30;99.90
71142;DHT22;58808;59.366;17.970;2022-08-11T00:24:24;19.30;99.90
71142;DHT22;58808;59.366;17.970;2022-08-11T00:26:52;19.30;99.90
71142;DHT22;58808;59.366;17.970;2022-08-11T00:29:19;19.20;99.90
71142;DHT22;58808;59.366;17.970;2022-08-11T00:31:51;19.20;99.90
71142;DHT22;58808;59.366;17.970;2022-08-11T00:34:24;19.20;99.90
71142;DHT22;58808;59.366;17.970;2022-08-11T00:39:24;19.20;99.90
71142;DHT22;58808;59.366;17.970;2022-08-11T00:42:25;19.30;99.90
71142;DHT22;58808;59.366;17.970;2022-08-11T00:47:38;19.20;99.90
71142;DHT22;58808;59.366;17.970;2022-08-11T00:50:28;19.30;99.90
71142;DHT22;58808;59.366;17.970;2022-08-11T00:53:29;19.20;99.90
71142;DHT22;58808;59.366;17.970;2022-08-11T01:12:52;19.10;99.90
71142;DHT22;58808;59.366;17.970;2022-08-11T01:36:01;18.90;99.90
71142;DHT22;58808;59.366;17.970;2022-08-11T01:50:49;18.70;99.90
71142;DHT22;58808;59.366;17.970;2022-08-11T01:59:10;18.70;99.90
71142;DHT22;58808;59.366;17.970;2022-08-11T02:04:57;18.70;99.90
71142;DHT22;58808;59.366;17.970;2022-08-11T02:07:35;18.70;99.90
71142;DHT22;58808;59.366;17.970;2022-08-11T02:14:01;18.60;99.90
71142;DHT22;58808;59.366;17.970;2022-08-11T02:30:49;18.50;99.90
71142;DHT22;58808;59.366;17.970;2022-08-11T02:33:37;18.50;99.90
71142;DHT22;58808;59.366;17.970;2022-08-11T02:36:35;18.40;99.90
71142;DHT22;58808;59.366;17.970;2022-08-11T02:39:08;18.40;99.90
71142;DHT22;58808;59.366;17.970;2022-08-11T02:41:47;18.50;99.90
71142;DHT22;58808;59.366;17.970;2022-08-11T02:53:43;18.60;99.90
71142;DHT22;58808;59.366;17.970;2022-08-11T02:56:20;18.50;99.90
71142;DHT22;58808;59.366;17.970;2022-08-11T03:02:00;18.40;99.90
71142;DHT22;58808;59.366;17.970;2022-08-11T03:21:58;18.20;99.90
71142;DHT22;58808;59.366;17.970;2022-08-11T03:27:24;18.20;99.90
71142;DHT22;58808;59.366;17.970;2022-08-11T03:30:15;18.10;99.90
71142;DHT22;58808;59.366;17.970;2022-08-11T03:32:47;18.10;99.90
71142;DHT22;58808;59.366;17.970;2022-08-11T03:35:40;18.20;99.90
71142;DHT22;58808;59.366;17.970;2022-08-11T03:38:13;18.20;99.90
71142;DHT22;58808;59.366;17.970;2022-08-11T03:46:40;18.10;99.90
71142;DHT22;58808;59.366;17.970;2022-08-11T03:49:49;18.10;99.90
71142;DHT22;58808;59.366;17.970;2022-08-11T03:52:47;18.00;99.90
71142;DHT22;58808;59.366;17.970;2022-08-11T03:55:29;18.10;99.90
71142;DHT22;58808;59.366;17.970;2022-08-11T03:58:24;18.00;99.90
71142;DHT22;58808;59.366;17.970;2022-08-11T04:33:01;18.10;99.90
71142;DHT22;58808;59.366;17.970;2022-08-11T04:35:45;18.10;99.90
71142;DHT22;58808;59.366;17.970;2022-08-11T04:49:50;18.10;99.90
71142;DHT22;58808;59.366;17.970;2022-08-11T04:53:09;18.20;99.90
71142;DHT22;58808;59.366;17.970;2022-08-11T04:56:30;18.30;99.90
71142;DHT22;58808;59.366;17.970;2022-08-11T05:06:07;18.40;99.90
71142;DHT22;58808;59.366;17.970;2022-08-11T05:16:57;18.50;99.90
71142;DHT22;58808;59.366;17.970;2022-08-11T05:19:46;18.40;99.90
71142;DHT22;58808;59.366;17.970;2022-08-11T05:22:30;18.50;99.90
71142;DHT22;58808;59.366;17.970;2022-08-11T05:25:28;18.50;99.90
71142;DHT22;58808;59.366;17.970;2022-08-11T05:28:35;18.60;99.90
71142;DHT22;58808;59.366;17.970;2022-08-11T05:31:35;18.60;99.90
71142;DHT22;58808;59.366;17.970;2022-08-11T05:43:49;18.60;99.90
71142;DHT22;58808;59.366;17.970;2022-08-11T05:46:41;18.40;99.90
71142;DHT22;58808;59.366;17.970;2022-08-11T05:49:30;18.50;99.90
71142;DHT22;58808;59.366;17.970;2022-08-11T05:52:28;18.40;99.90
71142;DHT22;58808;59.366;17.970;2022-08-11T05:55:14;18.40;99.90
71142;DHT22;58808;59.366;17.970;2022-08-11T05:58:12;18.40;99.90
71142;DHT22;58808;59.366;17.970;2022-08-11T06:00:45;18.40;99.90
71142;DHT22;58808;59.366;17.970;2022-08-11T06:03:21;18.50;99.90
71142;DHT22;58808;59.366;17.970;2022-08-11T06:05:49;18.50;99.90
71142;DHT22;58808;59.366;17.970;2022-08-11T06:08:15;18.40;99.90
71142;DHT22;58808;59.366;17.970;2022-08-11T06:10:43;18.40;99.90
71142;DHT22;58808;59.366;17.970;2022-08-11T06:13:19;18.50;99.90
71142;DHT22;58808;59.366;17.970;2022-08-11T06:15:50;18.60;99.90
71142;DHT22;58808;59.366;17.970;2022-08-11T06:18:18;18.70;99.90
71142;DHT22;58808;59.366;17.970;2022-08-11T06:20:47;18.70;99.90
71142;DHT22;58808;59.366;17.970;2022-08-11T06:23:14;18.80;99.90
71142;DHT22;58808;59.366;17.970;2022-08-11T06:25:43;18.80;99.90
71142;DHT22;58808;59.366;17.970;2022-08-11T06:28:09;18.90;99.90
71142;DHT22;58808;59.366;17.970;2022-08-11T06:30:44;19.00;99.90
71142;DHT22;58808;59.366;17.970;2022-08-11T06:33:11;19.00;99.90
71142;DHT22;58808;59.366;17.970;2022-08-11T06:35:45;19.00;99.90
71142;DHT22;58808;59.366;17.970;2022-08-11T06:38:27;19.00;99.90
71142;DHT22;58808;59.366;17.970;2022-08-11T06:41:00;19.10;99.90
71142;DHT22;58808;59.366;17.970;2022-08-11T06:46:35;19.40;99.90
71142;DHT22;58808;59.366;17.970;2022-08-11T06:49:09;19.30;99.90
71142;DHT22;58808;59.366;17.970;2022-08-11T06:51:57;19.40;99.90
71142;DHT22;58808;59.366;17.970;2022-08-11T06:54:26;19.30;99.90
71142;DHT22;58808;59.366;17.970;2022-08-11T06:56:53;19.40;99.90
71142;DHT22;58808;59.366;17.970;2022-08-11T06:59:37;19.50;99.90
71142;DHT22;58808;59.366;17.970;2022-08-11T07:02:29;19.70;99.90
71142;DHT22;58808;59.366;17.970;2022-08-11T07:05:10;19.80;99.90
71142;DHT22;58808;59.366;17.970;2022-08-11T07:13:37;20.10;99.90
71142;DHT22;58808;59.366;17.970;2022-08-11T07:16:26;20.30;99.90
71142;DHT22;58808;59.366;17.970;2022-08-11T07:19:02;20.40;99.90
71142;DHT22;58808;59.366;17.970;2022-08-11T07:21:47;20.50;99.90
71142;DHT22;58808;59.366;17.970;2022-08-11T07:24:36;20.50;99.90
71142;DHT22;58808;59.366;17.970;2022-08-11T07:27:25;20.70;99.90
71142;DHT22;58808;59.366;17.970;2022-08-11T07:30:11;20.90;99.90
71142;DHT22;58808;59.366;17.970;2022-08-11T07:32:48;21.00;99.90
71142;DHT22;58808;59.366;17.970;2022-08-11T07:35:23;21.30;99.90
71142;DHT22;58808;59.366;17.970;2022-08-11T07:37:57;21.60;99.90
71142;DHT22;58808;59.366;17.970;2022-08-11T07:40:24;21.60;99.90
71142;DHT22;58808;59.366;17.970;2022-08-11T07:42:54;21.80;99.90
71142;DHT22;58808;59.366;17.970;2022-08-11T07:45:22;22.10;99.90
71142;DHT22;58808;59.366;17.970;2022-08-11T07:48:11;22.20;99.90
71142;DHT22;58808;59.366;17.970;2022-08-11T07:50:56;22.30;99.90
71142;DHT22;58808;59.366;17.970;2022-08-11T07:53:41;22.20;99.90
71142;DHT22;58808;59.366;17.970;2022-08-11T07:56:07;22.20;99.90
71142;DHT22;58808;59.366;17.970;2022-08-11T07:58:36;22.50;99.90
71142;DHT22;58808;59.366;17.970;2022-08-11T08:01:23;22.50;99.90
71142;DHT22;58808;59.366;17.970;2022-08-11T08:04:10;22.60;99.90
71142;DHT22;58808;59.366;17.970;2022-08-11T08:06:56;22.60;99.90
71142;DHT22;58808;59.366;17.970;2022-08-11T08:09:43;22.60;99.90
71142;DHT22;58808;59.366;17.970;2022-08-11T08:12:31;22.70;99.90
71142;DHT22;58808;59.366;17.970;2022-08-11T08:15:27;23.00;99.10
71142;DHT22;58808;59.366;17.970;2022-08-11T08:18:11;23.10;97.80
71142;DHT22;58808;59.366;17.970;2022-08-11T08:20:48;23.20;98.30
71142;DHT22;58808;59.366;17.970;2022-08-11T08:23:20;23.30;97.40
71142;DHT22;58808;59.366;17.970;2022-08-11T08:26:03;23.30;95.90
71142;DHT22;58808;59.366;17.970;2022-08-11T08:28:50;23.20;95.80
71142;DHT22;58808;59.366;17.970;2022-08-11T08:31:16;22.90;98.50
71142;DHT22;58808;59.366;17.970;2022-08-11T08:33:42;22.80;97.50
71142;DHT22;58808;59.366;17.970;2022-08-11T08:36:08;22.90;97.20
71142;DHT22;58808;59.366;17.970;2022-08-11T08:38:50;23.10;96.30
71142;DHT22;58808;59.366;17.970;2022-08-11T08:41:27;23.30;95.10
71142;DHT22;58808;59.366;17.970;2022-08-11T08:43:57;23.40;95.90
71142;DHT22;58808;59.366;17.970;2022-08-11T08:46:35;23.60;95.40
71142;DHT22;58808;59.366;17.970;2022-08-11T08:49:02;23.90;93.30
71142;DHT22;58808;59.366;17.970;2022-08-11T08:51:31;24.10;92.10
71142;DHT22;58808;59.366;17.970;2022-08-11T08:54:13;24.10;91.30
71142;DHT22;58808;59.366;17.970;2022-08-11T08:56:43;24.10;91.00
71142;DHT22;58808;59.366;17.970;2022-08-11T08:59:10;24.20;85.90
71142;DHT22;58808;59.366;17.970;2022-08-11T09:01:42;24.40;84.50
71142;DHT22;58808;59.366;17.970;2022-08-11T09:04:11;24.20;81.90
71142;DHT22;58808;59.366;17.970;2022-08-11T09:06:38;24.10;87.50
71142;DHT22;58808;59.366;17.970;2022-08-11T09:09:07;24.20;83.90
71142;DHT22;58808;59.366;17.970;2022-08-11T09:11:35;24.60;84.70
71142;DHT22;58808;59.366;17.970;2022-08-11T09:14:36;25.00;77.50
71142;DHT22;58808;59.366;17.970;2022-08-11T09:17:22;24.90;72.20
71142;DHT22;58808;59.366;17.970;2022-08-11T09:19:51;24.70;76.20
71142;DHT22;58808;59.366;17.970;2022-08-11T09:22:26;24.80;75.30
71142;DHT22;58808;59.366;17.970;2022-08-11T09:25:16;24.60;72.80
71142;DHT22;58808;59.366;17.970;2022-08-11T09:28:02;24.80;73.60
71142;DHT22;58808;59.366;17.970;2022-08-11T09:30:30;24.80;69.50
71142;DHT22;58808;59.366;17.970;2022-08-11T09:32:58;24.90;67.60
71142;DHT22;58808;59.366;17.970;2022-08-11T09:35:30;24.80;67.20
71142;DHT22;58808;59.366;17.970;2022-08-11T09:37:58;24.80;67.30
71142;DHT22;58808;59.366;17.970;2022-08-11T09:40:45;25.00;70.00
71142;DHT22;58808;59.366;17.970;2022-08-11T09:43:12;25.50;66.80
71142;DHT22;58808;59.366;17.970;2022-08-11T09:45:59;25.90;60.70
71142;DHT22;58808;59.366;17.970;2022-08-11T09:48:26;26.30;58.40
71142;DHT22;58808;59.366;17.970;2022-08-11T09:50:55;26.20;57.30
71142;DHT22;58808;59.366;17.970;2022-08-11T09:53:23;26.00;53.80
71142;DHT22;58808;59.366;17.970;2022-08-11T09:55:50;26.00;55.50
71142;DHT22;58808;59.366;17.970;2022-08-11T09:58:16;26.20;54.30
71142;DHT22;58808;59.366;17.970;2022-08-11T10:00:44;26.20;53.90
71142;DHT22;58808;59.366;17.970;2022-08-11T10:03:16;26.00;54.50
71142;DHT22;58808;59.366;17.970;2022-08-11T10:05:53;25.70;54.80
71142;DHT22;58808;59.366;17.970;2022-08-11T10:08:41;25.70;56.20
71142;DHT22;58808;59.366;17.970;2022-08-11T10:11:10;25.80;55.90
71142;DHT22;58808;59.366;17.970;2022-08-11T10:13:41;26.00;53.90
71142;DHT22;58808;59.366;17.970;2022-08-11T10:16:34;26.00;52.10
71142;DHT22;58808;59.366;17.970;2022-08-11T10:19:03;26.00;52.90
71142;DHT22;58808;59.366;17.970;2022-08-11T10:21:41;25.70;52.30
71142;DHT22;58808;59.366;17.970;2022-08-11T10:24:18;25.80;54.60
71142;DHT22;58808;59.366;17.970;2022-08-11T10:27:06;26.10;51.80
71142;DHT22;58808;59.366;17.970;2022-08-11T10:29:36;26.10;52.40
71142;DHT22;58808;59.366;17.970;2022-08-11T10:32:27;26.30;52.40
71142;DHT22;58808;59.366;17.970;2022-08-11T10:35:14;26.60;48.30
71142;DHT22;58808;59.366;17.970;2022-08-11T10:37:43;27.00;46.40
71142;DHT22;58808;59.366;17.970;2022-08-11T10:40:14;27.10;46.90
71142;DHT22;58808;59.366;17.970;2022-08-11T10:42:40;27.20;47.50
71142;DHT22;58808;59.366;17.970;2022-08-11T10:45:35;27.30;45.90
71142;DHT22;58808;59.366;17.970;2022-08-11T10:48:23;27.10;44.50
71142;DHT22;58808;59.366;17.970;2022-08-11T10:50:50;26.90;44.50
71142;DHT22;58808;59.366;17.970;2022-08-11T10:53:36;27.10;44.00
71142;DHT22;58808;59.366;17.970;2022-08-11T10:56:21;27.20;43.10
71142;DHT22;58808;59.366;17.970;2022-08-11T10:59:07;27.20;42.30
71142;DHT22;58808;59.366;17.970;2022-08-11T11:01:41;27.40;42.80
71142;DHT22;58808;59.366;17.970;2022-08-11T11:04:32;27.40;41.80
71142;DHT22;58808;59.366;17.970;2022-08-11T11:07:13;27.10;42.20
71142;DHT22;58808;59.366;17.970;2022-08-11T11:09:47;26.80;42.40
71142;DHT22;58808;59.366;17.970;2022-08-11T11:12:26;26.80;43.70
71142;DHT22;58808;59.366;17.970;2022-08-11T11:15:19;27.10;44.20
71142;DHT22;58808;59.366;17.970;2022-08-11T11:18:11;27.10;43.10
71142;DHT22;58808;59.366;17.970;2022-08-11T11:20:58;27.30;44.20
71142;DHT22;58808;59.366;17.970;2022-08-11T11:23:33;27.30;43.40
71142;DHT22;58808;59.366;17.970;2022-08-11T11:37:08;27.90;40.50
71142;DHT22;58808;59.366;17.970;2022-08-11T11:39:38;28.10;39.80
71142;DHT22;58808;59.366;17.970;2022-08-11T11:42:08;28.10;39.70
71142;DHT22;58808;59.366;17.970;2022-08-11T11:44:38;27.90;39.10
71142;DHT22;58808;59.366;17.970;2022-08-11T11:47:05;27.90;40.00
71142;DHT22;58808;59.366;17.970;2022-08-11T11:49:32;28.20;40.20
71142;DHT22;58808;59.366;17.970;2022-08-11T11:51:59;28.20;38.80
71142;DHT22;58808;59.366;17.970;2022-08-11T11:54:31;28.10;39.30
71142;DHT22;58808;59.366;17.970;2022-08-11T11:56:59;28.40;38.40
71142;DHT22;58808;59.366;17.970;2022-08-11T11:59:47;28.40;37.50
71142;DHT22;58808;59.366;17.970;2022-08-11T12:02:32;28.40;37.60
71142;DHT22;58808;59.366;17.970;2022-08-11T12:04:59;28.50;38.60
71142;DHT22;58808;59.366;17.970;2022-08-11T12:07:27;28.70;37.10
71142;DHT22;58808;59.366;17.970;2022-08-11T12:10:12;28.70;37.40
71142;DHT22;58808;59.366;17.970;2022-08-11T12:12:39;28.70;36.50
71142;DHT22;58808;59.366;17.970;2022-08-11T12:15:43;28.70;36.70
71142;DHT22;58808;59.366;17.970;2022-08-11T12:18:10;28.70;36.40
71142;DHT22;58808;59.366;17.970;2022-08-11T12:20:37;28.80;37.00
71142;DHT22;58808;59.366;17.970;2022-08-11T12:23:03;28.90;36.50
71142;DHT22;58808;59.366;17.970;2022-08-11T12:25:50;28.90;36.80
71142;DHT22;58808;59.366;17.970;2022-08-11T12:28:35;29.20;35.00
71142;DHT22;58808;59.366;17.970;2022-08-11T12:31:02;28.90;35.70
71142;DHT22;58808;59.366;17.970;2022-08-11T12:33:28;29.00;36.00
71142;DHT22;58808;59.366;17.970;2022-08-11T12:35:58;29.00;35.70
71142;DHT22;58808;59.366;17.970;2022-08-11T12:38:25;29.10;35.70
71142;DHT22;58808;59.366;17.970;2022-08-11T12:40:52;28.80;35.20
71142;DHT22;58808;59.366;17.970;2022-08-11T12:43:38;28.80;35.20
71142;DHT22;58808;59.366;17.970;2022-08-11T12:46:30;28.80;36.30
71142;DHT22;58808;59.366;17.970;2022-08-11T12:49:07;29.00;35.20
71142;DHT22;58808;59.366;17.970;2022-08-11T12:51:53;29.00;34.80
71142;DHT22;58808;59.366;17.970;2022-08-11T12:57:35;28.80;36.10
71142;DHT22;58808;59.366;17.970;2022-08-11T13:00:21;29.10;33.40
71142;DHT22;58808;59.366;17.970;2022-08-11T13:03:07;29.10;33.40
71142;DHT22;58808;59.366;17.970;2022-08-11T13:06:01;29.00;33.60
71142;DHT22;58808;59.366;17.970;2022-08-11T13:08:30;29.00;33.40
71142;DHT22;58808;59.366;17.970;2022-08-11T13:10:59;29.20;31.60
71142;DHT22;58808;59.366;17.970;2022-08-11T13:13:45;29.20;31.30
71142;DHT22;58808;59.366;17.970;2022-08-11T13:16:12;29.20;31.40
71142;DHT22;58808;59.366;17.970;2022-08-11T13:18:42;29.10;31.50
71142;DHT22;58808;59.366;17.970;2022-08-11T13:21:09;29.30;30.60
71142;DHT22;58808;59.366;17.970;2022-08-11T13:23:37;29.40;30.10
71142;DHT22;58808;59.366;17.970;2022-08-11T13:26:05;29.20;29.80
71142;DHT22;58808;59.366;17.970;2022-08-11T13:28:36;29.40;30.30
71142;DHT22;58808;59.366;17.970;2022-08-11T13:31:03;29.50;29.70
71142;DHT22;58808;59.366;17.970;2022-08-11T13:33:47;29.50;30.10
71142;DHT22;58808;59.366;17.970;2022-08-11T13:36:19;29.90;29.20
71142;DHT22;58808;59.366;17.970;2022-08-11T13:38:45;29.90;28.70
71142;DHT22;58808;59.366;17.970;2022-08-11T13:41:15;29.60;29.00
71142;DHT22;58808;59.366;17.970;2022-08-11T13:44:01;29.30;29.60
71142;DHT22;58808;59.366;17.970;2022-08-11T13:46:27;29.30;29.10
71142;DHT22;58808;59.366;17.970;2022-08-11T13:48:55;29.20;28.40
71142;DHT22;58808;59.366;17.970;2022-08-11T13:51:23;29.00;28.00
71142;DHT22;58808;59.366;17.970;2022-08-11T13:53:59;29.00;28.10
71142;DHT22;58808;59.366;17.970;2022-08-11T13:56:29;29.00;28.00
71142;DHT22;58808;59.366;17.970;2022-08-11T13:58:55;29.20;28.30
71142;DHT22;58808;59.366;17.970;2022-08-11T14:01:33;29.30;28.10
71142;DHT22;58808;59.366;17.970;2022-08-11T14:04:08;29.50;28.40
71142;DHT22;58808;59.366;17.970;2022-08-11T14:06:35;29.60;29.10
71142;DHT22;58808;59.366;17.970;2022-08-11T14:09:06;29.80;28.70
71142;DHT22;58808;59.366;17.970;2022-08-11T14:11:33;29.90;28.40
71142;DHT22;58808;59.366;17.970;2022-08-11T14:14:31;29.80;29.20
71142;DHT22;58808;59.366;17.970;2022-08-11T14:17:03;29.80;29.00
71142;DHT22;58808;59.366;17.970;2022-08-11T14:19:31;29.90;29.20
71142;DHT22;58808;59.366;17.970;2022-08-11T14:22:01;29.70;29.10
71142;DHT22;58808;59.366;17.970;2022-08-11T14:24:41;29.40;29.30
71142;DHT22;58808;59.366;17.970;2022-08-11T14:27:10;29.50;29.80
71142;DHT22;58808;59.366;17.970;2022-08-11T14:29:38;29.50;29.50
71142;DHT22;58808;59.366;17.970;2022-08-11T14:32:07;29.30;30.00
71142;DHT22;58808;59.366;17.970;2022-08-11T14:34:35;29.10;29.70
71142;DHT22;58808;59.366;17.970;2022-08-11T14:37:06;28.70;30.00
71142;DHT22;58808;59.366;17.970;2022-08-11T14:39:34;28.70;30.50
71142;DHT22;58808;59.366;17.970;2022-08-11T14:42:04;28.70;30.20
71142;DHT22;58808;59.366;17.970;2022-08-11T14:44:51;28.70;30.60
71142;DHT22;58808;59.366;17.970;2022-08-11T14:47:41;29.00;29.60
71142;DHT22;58808;59.366;17.970;2022-08-11T14:50:12;29.00;29.50
71142;DHT22;58808;59.366;17.970;2022-08-11T14:52:45;29.30;29.70
71142;DHT22;58808;59.366;17.970;2022-08-11T14:55:12;29.30;29.00
71142;DHT22;58808;59.366;17.970;2022-08-11T14:57:59;29.20;29.20
71142;DHT22;58808;59.366;17.970;2022-08-11T15:00:24;29.30;28.70
71142;DHT22;58808;59.366;17.970;2022-08-11T15:02:51;29.20;28.00
71142;DHT22;58808;59.366;17.970;2022-08-11T15:05:54;29.20;27.40
71142;DHT22;58808;59.366;17.970;2022-08-11T15:08:22;29.40;28.00
71142;DHT22;58808;59.366;17.970;2022-08-11T15:11:09;29.80;26.80
71142;DHT22;58808;59.366;17.970;2022-08-11T15:13:58;29.50;26.50
71142;DHT22;58808;59.366;17.970;2022-08-11T15:16:26;29.60;26.70
71142;DHT22;58808;59.366;17.970;2022-08-11T15:19:11;29.40;26.20
71142;DHT22;58808;59.366;17.970;2022-08-11T15:21:37;29.10;26.30
71142;DHT22;58808;59.366;17.970;2022-08-11T15:24:22;28.80;26.80
71142;DHT22;58808;59.366;17.970;2022-08-11T15:26:52;28.70;27.10
71142;DHT22;58808;59.366;17.970;2022-08-11T15:29:38;28.70;27.20
71142;DHT22;58808;59.366;17.970;2022-08-11T15:32:25;28.60;27.50
71142;DHT22;58808;59.366;17.970;2022-08-11T15:35:13;28.60;27.40
71142;DHT22;58808;59.366;17.970;2022-08-11T15:38:01;28.30;27.90
71142;DHT22;58808;59.366;17.970;2022-08-11T15:40:33;28.30;28.00
71142;DHT22;58808;59.366;17.970;2022-08-11T15:43:28;28.20;27.60
71142;DHT22;58808;59.366;17.970;2022-08-11T15:48:59;28.00;28.20
71142;DHT22;58808;59.366;17.970;2022-08-11T15:51:52;28.00;27.90
71142;DHT22;58808;59.366;17.970;2022-08-11T15:54:19;27.90;28.20
71142;DHT22;58808;59.366;17.970;2022-08-11T15:56:49;27.90;29.00
71142;DHT22;58808;59.366;17.970;2022-08-11T15:59:18;27.70;28.80
71142;DHT22;58808;59.366;17.970;2022-08-11T16:02:03;27.50;29.70
71142;DHT22;58808;59.366;17.970;2022-08-11T16:04:44;27.40;30.50
71142;DHT22;58808;59.366;17.970;2022-08-11T16:07:16;27.30;30.90
71142;DHT22;58808;59.366;17.970;2022-08-11T16:12:27;27.40;31.20
71142;DHT22;58808;59.366;17.970;2022-08-11T16:14:56;27.40;31.60
71142;DHT22;58808;59.366;17.970;2022-08-11T16:17:43;27.40;32.20
71142;DHT22;58808;59.366;17.970;2022-08-11T16:20:12;27.50;32.00
71142;DHT22;58808;59.366;17.970;2022-08-11T16:22:39;27.40;32.00
71142;DHT22;58808;59.366;17.970;2022-08-11T16:25:16;27.30;32.70
71142;DHT22;58808;59.366;17.970;2022-08-11T16:27:48;27.40;32.70
71142;DHT22;58808;59.366;17.970;2022-08-11T16:30:15;27.40;32.70
71142;DHT22;58808;59.366;17.970;2022-08-11T16:32:43;27.30;32.70
71142;DHT22;58808;59.366;17.970;2022-08-11T16:35:14;27.20;33.00
71142;DHT22;58808;59.366;17.970;2022-08-11T16:38:00;27.10;33.80
71142;DHT22;58808;59.366;17.970;2022-08-11T16:40:46;27.10;33.70
71142;DHT22;58808;59.366;17.970;2022-08-11T16:43:16;27.20;34.20
71142;DHT22;58808;59.366;17.970;2022-08-11T16:46:03;27.20;34.30
71142;DHT22;58808;59.366;17.970;2022-08-11T16:48:48;27.10;34.20
71142;DHT22;58808;59.366;17.970;2022-08-11T16:51:14;27.10;34.30
71142;DHT22;58808;59.366;17.970;2022-08-11T16:53:49;27.00;34.20
71142;DHT22;58808;59.366;17.970;2022-08-11T16:56:18;27.00;33.60
71142;DHT22;58808;59.366;17.970;2022-08-11T16:58:48;27.10;32.90
71142;DHT22;58808;59.366;17.970;2022-08-11T17:01:34;27.00;33.20
71142;DHT22;58808;59.366;17.970;2022-08-11T17:04:13;27.00;33.00
71142;DHT22;58808;59.366;17.970;2022-08-11T17:06:58;26.80;33.00
71142;DHT22;58808;59.366;17.970;2022-08-11T17:09:46;26.80;33.00
71142;DHT22;58808;59.366;17.970;2022-08-11T17:12:33;26.70;32.40
71142;DHT22;58808;59.366;17.970;2022-08-11T17:15:30;26.70;32.70
71142;DHT22;58808;59.366;17.970;2022-08-11T17:18:16;26.60;33.40
71142;DHT22;58808;59.366;17.970;2022-08-11T17:21:03;26.50;33.00
71142;DHT22;58808;59.366;17.970;2022-08-11T17:23:34;26.40;33.20
71142;DHT22;58808;59.366;17.970;2022-08-11T17:26:21;26.30;33.70
71142;DHT22;58808;59.366;17.970;2022-08-11T17:28:58;26.30;33.80
71142;DHT22;58808;59.366;17.970;2022-08-11T17:31:26;26.30;34.10
71142;DHT22;58808;59.366;17.970;2022-08-11T17:34:12;26.20;34.80
71142;DHT22;58808;59.366;17.970;2022-08-11T17:36:57;26.20;34.50
71142;DHT22;58808;59.366;17.970;2022-08-11T17:39:26;26.10;34.80
71142;DHT22;58808;59.366;17.970;2022-08-11T17:42:02;26.10;35.30
71142;DHT22;58808;59.366;17.970;2022-08-11T17:44:47;26.00;36.60
71142;DHT22;58808;59.366;17.970;2022-08-11T17:47:32;26.00;35.90
71142;DHT22;58808;59.366;17.970;2022-08-11T17:50:18;26.10;36.50
71142;DHT22;58808;59.366;17.970;2022-08-11T17:52:45;26.10;36.30
71142;DHT22;58808;59.366;17.970;2022-08-11T17:55:31;26.10;37.10
71142;DHT22;58808;59.366;17.970;2022-08-11T17:58:16;26.00;37.20
71142;DHT22;58808;59.366;17.970;2022-08-11T18:01:02;26.20;37.80
71142;DHT22;58808;59.366;17.970;2022-08-11T18:03:28;26.20;37.70
71142;DHT22;58808;59.366;17.970;2022-08-11T18:05:59;26.10;37.90
71142;DHT22;58808;59.366;17.970;2022-08-11T18:08:26;26.10;37.80
71142;DHT22;58808;59.366;17.970;2022-08-11T18:11:11;26.00;38.00
71142;DHT22;58808;59.366;17.970;2022-08-11T18:14:00;26.00;38.00
71142;DHT22;58808;59.366;17.970;2022-08-11T18:16:45;25.80;38.30
71142;DHT22;58808;59.366;17.970;2022-08-11T18:19:29;25.80;38.40
71142;DHT22;58808;59.366;17.970;2022-08-11T18:22:21;25.70;38.70
71142;DHT22;58808;59.366;17.970;2022-08-11T18:25:20;25.70;39.40
71142;DHT22;58808;59.366;17.970;2022-08-11T18:28:07;25.70;39.70
71142;DHT22;58808;59.366;17.970;2022-08-11T18:30:53;25.60;39.40
71142;DHT22;58808;59.366;17.970;2022-08-11T18:33:48;25.60;40.00
71142;DHT22;58808;59.366;17.970;2022-08-11T18:36:38;25.50;40.30
71142;DHT22;58808;59.366;17.970;2022-08-11T18:39:24;25.40;40.50
71142;DHT22;58808;59.366;17.970;2022-08-11T18:42:14;25.30;41.10
71142;DHT22;58808;59.366;17.970;2022-08-11T18:45:03;25.30;40.80
71142;DHT22;58808;59.366;17.970;2022-08-11T18:47:51;25.20;40.90
71142;DHT22;58808;59.366;17.970;2022-08-11T18:50:39;25.20;41.20
71142;DHT22;58808;59.366;17.970;2022-08-11T18:53:26;25.10;41.60
71142;DHT22;58808;59.366;17.970;2022-08-11T18:56:12;25.00;41.70
71142;DHT22;58808;59.366;17.970;2022-08-11T18:58:58;24.80;42.50
71142;DHT22;58808;59.366;17.970;2022-08-11T19:01:44;24.80;42.80
71142;DHT22;58808;59.366;17.970;2022-08-11T19:04:29;24.80;42.60
71142;DHT22;58808;59.366;17.970;2022-08-11T19:07:14;24.80;43.00
71142;DHT22;58808;59.366;17.970;2022-08-11T19:10:02;24.60;43.20
71142;DHT22;58808;59.366;17.970;2022-08-11T19:12:48;24.60;43.60
71142;DHT22;58808;59.366;17.970;2022-08-11T19:15:34;24.50;44.10
71142;DHT22;58808;59.366;17.970;2022-08-11T19:18:21;24.50;44.40
71142;DHT22;58808;59.366;17.970;2022-08-11T19:21:07;24.40;44.90
71142;DHT22;58808;59.366;17.970;2022-08-11T19:23:54;24.30;45.60
71142;DHT22;58808;59.366;17.970;2022-08-11T19:26:39;24.30;45.80
71142;DHT22;58808;59.366;17.970;2022-08-11T19:29:25;24.30;46.20
71142;DHT22;58808;59.366;17.970;2022-08-11T19:32:12;24.10;47.00
71142;DHT22;58808;59.366;17.970;2022-08-11T19:34:57;24.10;47.90
71142;DHT22;58808;59.366;17.970;2022-08-11T19:37:43;24.00;47.50
71142;DHT22;58808;59.366;17.970;2022-08-11T19:40:29;23.90;48.40
71142;DHT22;58808;59.366;17.970;2022-08-11T19:43:13;23.90;48.70
71142;DHT22;58808;59.366;17.970;2022-08-11T19:46:01;23.80;49.40
71142;DHT22;58808;59.366;17.970;2022-08-11T19:48:49;23.70;49.60
71142;DHT22;58808;59.366;17.970;2022-08-11T19:51:35;23.60;50.20
71142;DHT22;58808;59.366;17.970;2022-08-11T19:54:27;23.60;51.00
71142;DHT22;58808;59.366;17.970;2022-08-11T19:57:12;23.50;51.10
71142;DHT22;58808;59.366;17.970;2022-08-11T19:59:57;23.50;51.50
71142;DHT22;58808;59.366;17.970;2022-08-11T20:02:42;23.50;51.70